Time;durP1;ratioP1;P1;durP2;ratioP2;P2;SDS_P1;SDS_P2;PMS_P1;PMS_P2;Temp;Humidity;BMP_temperature;BMP_pressure;BME280_temperature;BME280_humidity;BME280_pressure;Samples;Min_cycle;Max_cycle;Signal;HPM_P1;HPM_P2
2022/12/24 00:01:11;;;;;;;10.02;2.08;;;10.50;93.10;;;;;;5126997;28;20046;-77
2022/12/24 00:03:37;;;;;;;7.78;1.92;;;10.40;93.00;;;;;;5111694;28;20043;-75
2022/12/24 00:06:07;;;;;;;9.73;2.55;;;10.50;93.10;;;;;;5087059;28;20447;-76
2022/12/24 00:08:33;;;;;;;10.40;2.30;;;10.40;93.00;;;;;;5122079;28;20055;-77
2022/12/24 00:10:59;;;;;;;8.23;2.10;;;10.40;93.00;;;;;;5108776;28;20092;-76
2022/12/24 00:13:25;;;;;;;8.27;2.05;;;10.40;93.00;;;;;;5088635;28;20035;-75
2022/12/24 00:15:50;;;;;;;9.32;2.03;;;10.40;93.00;;;;;;5131684;28;20049;-76
2022/12/24 00:18:16;;;;;;;8.77;2.08;;;10.40;93.10;;;;;;5119040;28;20046;-76
2022/12/24 00:20:46;;;;;;;7.13;1.80;;;10.40;93.00;;;;;;5124703;28;20058;-75
2022/12/24 00:23:12;;;;;;;11.68;2.55;;;10.40;93.00;;;;;;5105956;28;20103;-76
2022/12/24 00:25:38;;;;;;;10.82;2.30;;;10.40;93.00;;;;;;5106215;28;20126;-76
2022/12/24 00:28:03;;;;;;;9.10;2.20;;;10.30;92.90;;;;;;5100931;28;20579;-76
2022/12/24 00:30:29;;;;;;;10.57;2.08;;;10.30;92.90;;;;;;5134619;28;20489;-77
2022/12/24 00:32:55;;;;;;;9.63;2.15;;;10.40;92.90;;;;;;5138190;28;20121;-77
2022/12/24 00:35:21;;;;;;;7.70;1.55;;;10.30;92.80;;;;;;5118254;28;20084;-77
2022/12/24 00:37:47;;;;;;;7.70;1.95;;;10.40;92.90;;;;;;5132572;28;20035;-77
2022/12/24 00:40:13;;;;;;;7.80;1.90;;;10.30;92.90;;;;;;5103291;28;20046;-77
2022/12/24 00:42:39;;;;;;;6.68;1.63;;;10.30;92.90;;;;;;5121854;28;20045;-77
2022/12/24 00:45:05;;;;;;;6.82;1.70;;;10.30;92.90;;;;;;5146292;28;20043;-76
2022/12/24 00:47:31;;;;;;;8.90;2.28;;;10.30;92.90;;;;;;5132878;28;20048;-76
2022/12/24 00:49:56;;;;;;;9.35;1.88;;;10.30;92.90;;;;;;5123819;28;20482;-76
2022/12/24 00:52:22;;;;;;;7.20;1.70;;;10.30;92.80;;;;;;5105321;28;20051;-76
2022/12/24 00:54:48;;;;;;;10.27;2.22;;;10.30;92.80;;;;;;5129960;28;20091;-76
2022/12/24 00:57:13;;;;;;;10.85;2.20;;;10.30;92.80;;;;;;5121135;28;20047;-76
2022/12/24 00:59:39;;;;;;;6.72;2.03;;;10.20;92.80;;;;;;5082114;28;20049;-77
2022/12/24 01:02:05;;;;;;;8.65;1.70;;;10.30;92.80;;;;;;5100470;28;20043;-76
2022/12/24 01:07:06;;;;;;;7.85;1.88;;;10.20;92.80;;;;;;5134334;28;20107;-76
2022/12/24 01:09:32;;;;;;;9.63;2.20;;;10.10;92.80;;;;;;5138607;28;20069;-77
2022/12/24 01:12:02;;;;;;;7.63;2.30;;;10.20;92.80;;;;;;5085187;28;20490;-76
2022/12/24 01:14:28;;;;;;;11.68;2.00;;;10.20;92.90;;;;;;5149716;28;20057;-76
2022/12/24 01:16:54;;;;;;;8.57;1.85;;;10.10;92.80;;;;;;5121393;28;20848;-75
2022/12/24 01:19:20;;;;;;;8.75;2.13;;;10.10;92.80;;;;;;5132739;28;20120;-75
2022/12/24 01:21:45;;;;;;;8.43;2.20;;;10.20;92.90;;;;;;5132581;28;20042;-76
2022/12/24 01:24:15;;;;;;;7.10;1.95;;;10.10;92.90;;;;;;5115304;28;20043;-75
2022/12/24 01:26:41;;;;;;;8.50;2.33;;;10.10;92.80;;;;;;5115846;28;20054;-76
2022/12/24 01:29:07;;;;;;;10.13;1.85;;;10.10;92.80;;;;;;5103777;28;20091;-76
2022/12/24 01:31:33;;;;;;;9.55;2.05;;;10.20;92.80;;;;;;5088253;28;20134;-76
2022/12/24 01:33:59;;;;;;;6.55;1.90;;;10.00;92.80;;;;;;5104309;28;20042;-76
2022/12/24 01:36:25;;;;;;;4.70;1.40;;;10.00;92.80;;;;;;5126901;28;20035;-76
2022/12/24 01:38:50;;;;;;;6.35;1.60;;;10.00;92.80;;;;;;5143928;28;20066;-75
2022/12/24 01:44:16;;;;;;;10.70;2.38;;;10.00;92.90;;;;;;5149378;28;20047;-76
2022/12/24 01:46:42;;;;;;;6.45;1.88;;;9.90;92.90;;;;;;5120188;28;20544;-75
2022/12/24 01:49:12;;;;;;;6.35;2.00;;;9.90;92.90;;;;;;5138496;28;20035;-76
2022/12/24 01:51:45;;;;;;;5.80;1.90;;;9.90;92.90;;;;;;5120883;28;20066;-76
2022/12/24 01:54:19;;;;;;;6.43;2.10;;;9.90;92.90;;;;;;5141853;27;20532;-76
2022/12/24 01:56:51;;;;;;;5.72;1.40;;;9.80;92.90;;;;;;5109246;28;20427;-76
2022/12/24 01:59:18;;;;;;;5.45;1.55;;;9.80;92.90;;;;;;5151067;28;20130;-77
2022/12/24 02:01:47;;;;;;;4.55;1.70;;;9.70;93.00;;;;;;5115528;28;20111;-77
2022/12/24 02:04:34;;;;;;;4.05;1.30;;;9.70;93.00;;;;;;5128861;28;20054;-76
2022/12/24 02:07:00;;;;;;;4.90;1.40;;;9.70;93.10;;;;;;5143886;28;20130;-77
2022/12/24 02:09:27;;;;;;;5.25;1.58;;;9.50;93.10;;;;;;5139794;28;20108;-77
2022/12/24 02:11:52;;;;;;;6.88;1.52;;;9.50;93.10;;;;;;5102992;28;20093;-77
2022/12/24 02:14:19;;;;;;;4.70;1.30;;;9.50;93.10;;;;;;5104156;28;20031;-77
2022/12/24 02:16:59;;;;;;;7.95;1.60;;;9.50;93.10;;;;;;5102862;28;20065;-77
2022/12/24 02:19:54;;;;;;;6.28;1.33;;;9.40;93.10;;;;;;5088741;28;20482;-75
2022/12/24 02:22:40;;;;;;;3.30;1.30;;;9.40;93.20;;;;;;5135485;28;20043;-78
2022/12/24 02:25:24;;;;;;;3.65;1.38;;;9.40;93.20;;;;;;5119898;28;20039;-79
2022/12/24 02:28:08;;;;;;;3.72;1.17;;;9.30;93.20;;;;;;5040469;28;20156;-78
2022/12/24 02:30:46;;;;;;;5.60;1.63;;;9.30;93.20;;;;;;5060197;28;20044;-79
2022/12/24 02:33:27;;;;;;;4.03;1.02;;;9.30;93.30;;;;;;5075686;28;20044;-77
2022/12/24 02:36:09;;;;;;;6.13;1.42;;;9.20;93.30;;;;;;5070134;28;20045;-76
2022/12/24 02:38:42;;;;;;;;;;;9.20;93.30;;;;;;5072056;28;20127;-77
2022/12/24 02:41:19;;;;;;;2.08;0.90;;;9.20;93.30;;;;;;5072062;28;20367;-76
2022/12/24 02:43:47;;;;;;;4.72;1.00;;;9.10;93.30;;;;;;5071809;28;20602;-76
2022/12/24 02:46:17;;;;;;;4.28;1.20;;;9.10;93.30;;;;;;5054870;28;20044;-76
2022/12/24 02:48:46;;;;;;;1.83;0.68;;;9.10;93.30;;;;;;5055154;28;20122;-76
2022/12/24 02:51:12;;;;;;;4.30;1.00;;;9.10;93.30;;;;;;5071552;28;20045;-77
2022/12/24 02:53:39;;;;;;;3.38;1.27;;;9.00;93.30;;;;;;5054719;28;20040;-76
2022/12/24 02:56:40;;;;;;;3.47;0.80;;;9.00;93.30;;;;;;5071510;28;20512;-77
2022/12/24 02:59:33;;;;;;;2.65;0.80;;;8.90;93.40;;;;;;5054609;28;20040;-77
2022/12/24 03:02:25;;;;;;;4.15;1.13;;;8.90;93.40;;;;;;5071559;28;20465;-77
2022/12/24 03:05:11;;;;;;;4.32;1.05;;;8.80;93.40;;;;;;5088944;28;20070;-77
2022/12/24 03:07:51;;;;;;;3.85;1.10;;;8.90;93.40;;;;;;5101062;28;20120;-76
2022/12/24 03:10:43;;;;;;;5.18;1.10;;;8.90;93.40;;;;;;5100481;28;20066;-77
2022/12/24 03:13:12;;;;;;;;;;;8.90;93.40;;;;;;5135275;28;20462;-76
2022/12/24 03:15:38;;;;;;;9.05;1.23;;;8.80;93.30;;;;;;5134324;28;19915;-76
2022/12/24 03:18:07;;;;;;;3.80;0.90;;;8.70;93.30;;;;;;5134368;28;20516;-77
2022/12/24 03:20:54;;;;;;;3.58;0.70;;;8.80;93.40;;;;;;5115789;28;20051;-76
2022/12/24 03:23:20;;;;;;;3.50;0.80;;;8.80;93.40;;;;;;5134076;28;20043;-77
2022/12/24 03:25:45;;;;;;;2.97;0.95;;;8.70;93.40;;;;;;5134840;28;20371;-77
2022/12/24 03:28:14;;;;;;;3.03;0.80;;;8.70;93.40;;;;;;5098747;28;20078;-77
2022/12/24 03:30:43;;;;;;;2.88;0.80;;;8.70;93.40;;;;;;5098631;28;20043;-77
2022/12/24 03:33:09;;;;;;;3.90;1.25;;;8.70;93.40;;;;;;5082063;28;20046;-76
2022/12/24 03:35:35;;;;;;;3.72;0.70;;;8.70;93.50;;;;;;5115867;28;20047;-77
2022/12/24 03:38:00;;;;;;;3.28;0.98;;;8.70;93.40;;;;;;5134595;28;20039;-77
2022/12/24 03:40:26;;;;;;;3.22;0.90;;;8.80;93.50;;;;;;5116089;28;20043;-77
2022/12/24 03:42:52;;;;;;;4.80;1.10;;;8.70;93.50;;;;;;5115831;28;20126;-77
2022/12/24 03:45:17;;;;;;;5.28;1.10;;;8.70;93.50;;;;;;5098613;28;20122;-77
2022/12/24 03:47:43;;;;;;;3.58;0.73;;;8.80;93.50;;;;;;5098241;28;20047;-77
2022/12/24 03:50:09;;;;;;;4.00;0.95;;;8.80;93.40;;;;;;5115333;28;20043;-76
2022/12/24 03:52:34;;;;;;;4.75;1.10;;;8.90;93.40;;;;;;5098385;28;20031;-77
2022/12/24 03:55:00;;;;;;;2.97;1.10;;;9.00;93.40;;;;;;5115850;28;20431;-76
2022/12/24 03:57:26;;;;;;;2.65;1.10;;;9.00;93.30;;;;;;5115256;28;20035;-77
2022/12/24 03:59:51;;;;;;;4.55;1.65;;;9.00;93.30;;;;;;5115360;28;20035;-76
2022/12/24 04:02:17;;;;;;;5.72;1.38;;;9.00;93.30;;;;;;5081163;28;20046;-77
2022/12/24 04:04:43;;;;;;;6.38;1.35;;;9.10;93.30;;;;;;5115183;28;20034;-77
2022/12/24 04:07:08;;;;;;;6.63;1.48;;;9.10;93.20;;;;;;5115268;28;20043;-77
2022/12/24 04:09:34;;;;;;;4.88;1.40;;;9.20;93.20;;;;;;5081537;28;20570;-76
2022/12/24 04:12:00;;;;;;;5.47;1.25;;;9.30;93.20;;;;;;5134007;28;20047;-77
2022/12/24 04:14:25;;;;;;;5.38;1.73;;;9.20;93.10;;;;;;5115665;28;20063;-76
2022/12/24 04:16:51;;;;;;;5.50;1.45;;;9.30;93.10;;;;;;5098073;28;20118;-77
2022/12/24 04:19:17;;;;;;;2.90;1.20;;;9.30;93.10;;;;;;5115259;28;20043;-77
2022/12/24 04:21:42;;;;;;;2.95;1.45;;;9.40;93.10;;;;;;5098044;28;20055;-77
2022/12/24 04:24:08;;;;;;;4.05;1.75;;;9.50;93.10;;;;;;5115545;28;20043;-77
2022/12/24 04:26:33;;;;;;;7.90;1.42;;;9.40;93.00;;;;;;5097876;28;20096;-76
2022/12/24 04:28:59;;;;;;;5.70;1.50;;;9.50;93.00;;;;;;5080994;28;20039;-77
2022/12/24 04:31:25;;;;;;;4.68;1.80;;;9.60;93.00;;;;;;5132844;28;20049;-77
2022/12/24 04:33:52;;;;;;;5.28;1.50;;;9.50;93.00;;;;;;5133158;28;20039;-77
2022/12/24 04:36:18;;;;;;;5.95;1.83;;;9.60;93.00;;;;;;5115168;28;20078;-76
2022/12/24 04:38:45;;;;;;;5.05;1.73;;;9.60;93.00;;;;;;5114960;28;20039;-77
2022/12/24 04:41:14;;;;;;;7.55;1.77;;;9.70;93.00;;;;;;5115602;28;20043;-76
2022/12/24 04:43:40;;;;;;;5.22;1.80;;;9.70;92.90;;;;;;5115955;28;20053;-77
2022/12/24 04:46:09;;;;;;;6.07;1.75;;;9.90;92.90;;;;;;5098416;28;20043;-76
2022/12/24 04:48:36;;;;;;;4.22;1.50;;;9.90;92.90;;;;;;5133223;28;20046;-77
2022/12/24 04:51:05;;;;;;;6.03;1.65;;;9.90;92.90;;;;;;5097829;28;20114;-76
2022/12/24 04:53:31;;;;;;;5.55;1.50;;;9.90;92.90;;;;;;5133619;28;20042;-77
2022/12/24 04:55:57;;;;;;;4.88;1.33;;;9.90;92.90;;;;;;5132917;28;20028;-77
2022/12/24 04:58:23;;;;;;;4.68;1.75;;;10.00;92.90;;;;;;5098262;28;20035;-77
2022/12/24 05:00:49;;;;;;;9.07;1.63;;;9.90;92.90;;;;;;5133358;28;20474;-77
2022/12/24 05:03:14;;;;;;;5.00;1.55;;;9.90;92.90;;;;;;5114671;28;20096;-77
2022/12/24 05:05:40;;;;;;;5.72;2.22;;;10.00;92.90;;;;;;5114548;28;20035;-77
2022/12/24 05:08:06;;;;;;;4.88;1.45;;;10.00;92.90;;;;;;5114844;28;20402;-77
2022/12/24 05:10:32;;;;;;;6.22;1.65;;;10.00;92.90;;;;;;5114613;28;20126;-76
2022/12/24 05:12:57;;;;;;;10.48;2.03;;;9.90;92.90;;;;;;5097442;28;20443;-77
2022/12/24 05:15:23;;;;;;;7.47;2.10;;;10.00;93.00;;;;;;5133191;28;20063;-78
2022/12/24 05:17:49;;;;;;;8.30;1.90;;;10.00;92.90;;;;;;5132867;28;20027;-77
2022/12/24 05:20:15;;;;;;;7.75;1.73;;;10.00;92.90;;;;;;5097423;28;20088;-77
2022/12/24 05:27:58;;;;;;;5.88;1.88;;;10.10;93.00;;;;;;5132679;27;20039;-77
2022/12/24 05:30:24;;;;;;;4.65;1.63;;;10.10;93.00;;;;;;5136066;28;20072;-76
2022/12/24 05:32:49;;;;;;;6.40;1.77;;;10.10;93.00;;;;;;5100829;28;20051;-77
2022/12/24 05:35:15;;;;;;;5.80;1.90;;;10.10;92.90;;;;;;5118111;28;20089;-76
2022/12/24 05:37:40;;;;;;;7.82;2.05;;;10.10;93.00;;;;;;5136132;28;20035;-77
2022/12/24 05:40:07;;;;;;;4.32;1.40;;;10.20;93.00;;;;;;5136168;28;20134;-77
2022/12/24 05:42:32;;;;;;;5.22;1.63;;;10.20;93.00;;;;;;5100584;28;20039;-76
2022/12/24 05:44:58;;;;;;;5.10;1.50;;;10.20;93.00;;;;;;5100982;28;20502;-77
2022/12/24 05:47:24;;;;;;;5.63;1.73;;;10.20;93.00;;;;;;5100802;28;20042;-77
2022/12/24 05:49:49;;;;;;;5.55;1.70;;;10.20;93.00;;;;;;5100649;28;20066;-77
2022/12/24 05:52:15;;;;;;;8.63;1.80;;;10.20;93.00;;;;;;5135872;28;20047;-76
2022/12/24 05:54:40;;;;;;;6.30;1.77;;;10.20;93.00;;;;;;5136225;28;20367;-77
2022/12/24 05:57:07;;;;;;;8.10;1.95;;;10.20;93.00;;;;;;5117385;28;20039;-76
2022/12/24 05:59:32;;;;;;;6.47;2.10;;;10.30;93.00;;;;;;5117377;28;20485;-77
2022/12/24 06:01:58;;;;;;;8.77;2.20;;;10.30;93.00;;;;;;5117498;28;20126;-77
2022/12/24 06:04:23;;;;;;;4.95;1.75;;;10.30;93.00;;;;;;5117396;28;20043;-78
2022/12/24 06:06:49;;;;;;;5.88;1.80;;;10.30;93.00;;;;;;5117289;28;20486;-77
2022/12/24 06:09:16;;;;;;;4.25;1.70;;;10.30;93.00;;;;;;5100358;28;20043;-77
2022/12/24 06:11:41;;;;;;;4.90;1.73;;;10.30;93.00;;;;;;5100569;28;20106;-76
2022/12/24 06:14:07;;;;;;;5.53;1.60;;;10.30;93.00;;;;;;5136161;28;20108;-77
2022/12/24 06:16:33;;;;;;;3.78;1.42;;;10.40;93.00;;;;;;5136044;28;20378;-77
2022/12/24 06:18:59;;;;;;;4.85;1.83;;;10.30;93.00;;;;;;5117115;28;20042;-76
2022/12/24 06:21:24;;;;;;;11.68;2.00;;;10.30;93.00;;;;;;5117155;28;20058;-77
2022/12/24 06:23:50;;;;;;;4.65;1.88;;;10.30;93.00;;;;;;5117251;28;20035;-77
2022/12/24 06:26:20;;;;;;;5.70;1.98;;;10.30;93.00;;;;;;5117036;28;20428;-77
2022/12/24 06:28:47;;;;;;;6.75;1.77;;;10.40;93.10;;;;;;5135479;28;20039;-76
2022/12/24 06:31:16;;;;;;;6.38;1.67;;;10.30;93.00;;;;;;5100000;28;20104;-77
2022/12/24 06:33:42;;;;;;;4.65;1.80;;;10.40;93.10;;;;;;5117479;28;20092;-77
2022/12/24 06:36:12;;;;;;;5.68;2.08;;;10.40;93.10;;;;;;5135213;28;20039;-77
2022/12/24 06:38:38;;;;;;;7.82;2.55;;;10.40;93.00;;;;;;5116892;28;20095;-77
2022/12/24 06:41:06;;;;;;;8.93;1.98;;;10.40;93.00;;;;;;5116398;28;20043;-76
2022/12/24 06:43:33;;;;;;;6.63;1.73;;;10.30;93.00;;;;;;5117552;28;20027;-77
2022/12/24 06:45:59;;;;;;;5.35;1.90;;;10.40;93.10;;;;;;5117395;28;20073;-77
2022/12/24 06:48:25;;;;;;;6.00;1.92;;;10.40;93.10;;;;;;5117388;28;20478;-77
2022/12/24 06:50:51;;;;;;;6.20;1.80;;;10.40;93.10;;;;;;5116864;28;20046;-76
2022/12/24 06:53:16;;;;;;;8.68;1.90;;;10.40;93.00;;;;;;5116580;28;20050;-76
2022/12/24 06:55:42;;;;;;;5.55;2.30;;;10.40;93.00;;;;;;5099484;28;20051;-76
2022/12/24 06:58:08;;;;;;;6.28;2.35;;;10.40;93.10;;;;;;5116672;28;20129;-76
2022/12/24 07:00:33;;;;;;;8.13;1.98;;;10.40;93.00;;;;;;5116499;28;20497;-76
2022/12/24 07:02:59;;;;;;;3.42;1.60;;;10.40;93.10;;;;;;5099412;28;20043;-76
2022/12/24 07:05:25;;;;;;;5.22;1.75;;;10.40;93.10;;;;;;5116351;28;20520;-76
2022/12/24 07:07:51;;;;;;;7.32;1.90;;;10.40;93.10;;;;;;5134654;28;20035;-76
2022/12/24 07:10:18;;;;;;;5.43;1.83;;;10.40;93.10;;;;;;5116197;28;20413;-76
2022/12/24 07:12:45;;;;;;;5.70;1.98;;;10.40;93.10;;;;;;5116182;28;20490;-76
2022/12/24 07:15:14;;;;;;;5.63;1.67;;;10.40;93.10;;;;;;5134566;28;20041;-76
2022/12/24 07:17:39;;;;;;;5.00;1.80;;;10.40;93.10;;;;;;5134624;28;20035;-76
2022/12/24 07:20:06;;;;;;;4.55;1.40;;;10.40;93.10;;;;;;5116302;28;20122;-76
2022/12/24 07:22:32;;;;;;;4.10;1.70;;;10.40;93.10;;;;;;5116175;28;20039;-76
2022/12/24 07:24:58;;;;;;;5.47;1.40;;;10.40;93.10;;;;;;5116080;28;20379;-76
2022/12/24 07:27:23;;;;;;;3.33;1.48;;;10.40;93.10;;;;;;5082083;28;20057;-76
2022/12/24 07:29:49;;;;;;;4.32;1.63;;;10.40;93.20;;;;;;5116167;28;20032;-76
2022/12/24 07:32:14;;;;;;;7.38;2.10;;;10.30;93.20;;;;;;5115941;28;20082;-76
2022/12/24 07:34:40;;;;;;;4.47;1.58;;;10.30;93.20;;;;;;5115654;28;20039;-76
2022/12/24 07:37:06;;;;;;;5.75;1.70;;;10.30;93.20;;;;;;5134063;28;20036;-76
2022/12/24 07:39:32;;;;;;;6.85;2.20;;;10.30;93.20;;;;;;5081864;28;20046;-76
2022/12/24 07:41:57;;;;;;;7.15;1.73;;;10.30;93.20;;;;;;5134612;28;20066;-77
2022/12/24 07:44:24;;;;;;;5.53;1.77;;;10.40;93.20;;;;;;5134661;28;20083;-76
2022/12/24 07:46:49;;;;;;;7.90;1.88;;;10.40;93.10;;;;;;5115884;28;20053;-76
2022/12/24 07:49:15;;;;;;;3.85;1.70;;;10.40;93.10;;;;;;5134070;28;20030;-76
2022/12/24 07:51:41;;;;;;;7.93;1.75;;;10.40;93.10;;;;;;5114782;28;20134;-76
2022/12/24 07:54:07;;;;;;;5.30;1.48;;;10.40;93.10;;;;;;5098665;28;20035;-76
2022/12/24 07:56:33;;;;;;;7.35;1.77;;;10.30;93.10;;;;;;5133842;28;20390;-76
2022/12/24 07:58:58;;;;;;;4.18;1.63;;;10.30;93.10;;;;;;5134096;28;20031;-76
2022/12/24 08:01:24;;;;;;;4.38;1.63;;;10.30;93.10;;;;;;5098544;28;20046;-76
2022/12/24 08:03:53;;;;;;;5.93;1.80;;;10.30;93.10;;;;;;5134214;28;20085;-77
2022/12/24 08:06:19;;;;;;;4.57;1.38;;;10.30;93.10;;;;;;5134399;28;20066;-76
2022/12/24 08:08:44;;;;;;;8.38;2.10;;;10.40;93.20;;;;;;5133714;28;20043;-76
2022/12/24 08:11:10;;;;;;;6.75;1.90;;;10.40;93.20;;;;;;5115558;28;20612;-76
2022/12/24 08:13:36;;;;;;;4.72;1.92;;;10.40;93.10;;;;;;5133744;28;20047;-76
2022/12/24 08:16:02;;;;;;;4.47;1.67;;;10.40;93.10;;;;;;5081602;28;20100;-76
2022/12/24 08:18:27;;;;;;;5.40;1.83;;;10.40;93.10;;;;;;5133937;28;20039;-76
2022/12/24 08:20:53;;;;;;;6.07;1.88;;;10.40;93.10;;;;;;5115298;28;20047;-76
2022/12/24 08:23:19;;;;;;;5.20;1.70;;;10.30;93.00;;;;;;5133609;28;20043;-76
2022/12/24 08:25:46;;;;;;;7.18;1.98;;;10.40;93.10;;;;;;5115117;28;20039;-76
2022/12/24 08:28:15;;;;;;;7.20;2.05;;;10.40;93.00;;;;;;5115147;28;20137;-76
2022/12/24 08:30:41;;;;;;;5.68;1.75;;;10.40;93.10;;;;;;5133726;28;20088;-76
2022/12/24 08:33:07;;;;;;;6.30;2.00;;;10.40;93.10;;;;;;5115403;28;20078;-76
2022/12/24 08:35:33;;;;;;;8.45;2.10;;;10.40;93.10;;;;;;5115082;28;20063;-76
2022/12/24 08:37:59;;;;;;;6.63;1.70;;;10.30;93.00;;;;;;5133408;28;20405;-77
2022/12/24 08:40:25;;;;;;;4.53;1.73;;;10.30;93.00;;;;;;5133332;28;20043;-76
2022/12/24 08:42:50;;;;;;;7.32;1.90;;;10.40;93.10;;;;;;5114897;28;20126;-76
2022/12/24 08:45:16;;;;;;;5.85;2.00;;;10.30;93.00;;;;;;5098240;28;20514;-77
2022/12/24 08:47:42;;;;;;;6.30;1.95;;;10.40;93.10;;;;;;5133462;28;20043;-77
2022/12/24 08:50:09;;;;;;;7.05;1.98;;;10.40;93.00;;;;;;5114960;28;20039;-76
2022/12/24 08:52:35;;;;;;;8.95;2.25;;;10.40;93.00;;;;;;5134549;28;20057;-75
2022/12/24 08:55:01;;;;;;;7.90;2.13;;;10.40;93.00;;;;;;5115914;28;20043;-75
2022/12/24 08:57:27;;;;;;;6.93;2.35;;;10.50;93.00;;;;;;5115803;28;20516;-74
2022/12/24 08:59:52;;;;;;;6.60;2.05;;;10.40;93.00;;;;;;5114513;28;20046;-75
2022/12/24 09:02:18;;;;;;;5.65;1.88;;;10.40;92.90;;;;;;5133162;27;20086;-74
2022/12/24 09:04:44;;;;;;;8.13;1.98;;;10.40;92.90;;;;;;5101135;28;20091;-75
2022/12/24 09:07:10;;;;;;;4.65;1.60;;;10.50;93.00;;;;;;5137048;28;20133;-75
2022/12/24 09:09:36;;;;;;;4.20;1.52;;;10.50;93.00;;;;;;5118402;28;20054;-75
2022/12/24 09:12:04;;;;;;;7.65;2.05;;;10.50;93.00;;;;;;5118376;28;20050;-74
2022/12/24 09:14:29;;;;;;;8.07;2.40;;;10.50;93.00;;;;;;5137279;28;20405;-75
2022/12/24 09:16:55;;;;;;;10.25;2.88;;;10.60;92.90;;;;;;5101377;28;20122;-75
2022/12/24 09:19:21;;;;;;;7.07;2.00;;;10.70;92.90;;;;;;5101284;28;20050;-75
2022/12/24 09:21:46;;;;;;;8.88;2.55;;;10.80;92.90;;;;;;5118171;28;20177;-74
2022/12/24 09:24:12;;;;;;;7.50;1.90;;;10.70;92.80;;;;;;5136390;28;20080;-74
2022/12/24 09:26:40;;;;;;;4.65;1.65;;;10.80;92.80;;;;;;5118598;28;20437;-75
2022/12/24 09:29:06;;;;;;;6.65;2.08;;;10.80;92.70;;;;;;5084150;28;20035;-75
2022/12/24 09:31:32;;;;;;;5.55;2.00;;;10.90;92.70;;;;;;5136619;28;20139;-75
2022/12/24 09:33:58;;;;;;;6.18;2.20;;;10.80;92.70;;;;;;5136406;28;20516;-74
2022/12/24 09:36:23;;;;;;;8.82;2.28;;;10.80;92.70;;;;;;5117761;28;20078;-75
2022/12/24 09:38:50;;;;;;;6.18;2.03;;;10.80;92.70;;;;;;5136720;28;20108;-75
2022/12/24 09:41:50;;;;;;;6.07;1.90;;;10.90;92.80;;;;;;5136346;28;20066;-74
2022/12/24 09:44:35;;;;;;;6.47;2.20;;;10.80;92.70;;;;;;5106646;28;20130;-74
2022/12/24 09:47:07;;;;;;;7.13;2.10;;;10.90;92.70;;;;;;5136087;28;20042;-74
2022/12/24 09:49:39;;;;;;;6.53;2.00;;;11.00;92.70;;;;;;5136650;28;20465;-74
2022/12/24 09:52:10;;;;;;;6.20;2.20;;;10.90;92.70;;;;;;5135952;28;20044;-74
2022/12/24 09:54:41;;;;;;;7.50;2.22;;;10.90;92.70;;;;;;5117621;28;20039;-74
2022/12/24 09:57:19;;;;;;;9.25;2.38;;;10.90;92.70;;;;;;5134501;28;20370;-74
2022/12/24 09:59:45;;;;;;;6.38;2.47;;;10.90;92.70;;;;;;5135503;28;20039;-75
2022/12/24 10:02:15;;;;;;;7.70;2.10;;;10.90;92.60;;;;;;5117455;28;20064;-75
2022/12/24 10:04:42;;;;;;;4.43;2.00;;;10.90;92.70;;;;;;5135952;28;20043;-74
2022/12/24 10:07:33;;;;;;;7.25;2.03;;;11.00;92.70;;;;;;5117505;28;20039;-74
2022/12/24 10:10:19;;;;;;;6.65;1.73;;;11.00;92.70;;;;;;5117696;28;20103;-74
2022/12/24 10:13:03;;;;;;;6.82;2.30;;;11.10;92.60;;;;;;5135931;28;20043;-75
2022/12/24 10:15:38;;;;;;;5.15;2.05;;;11.10;92.60;;;;;;5137607;27;20043;-75
2022/12/24 10:18:33;;;;;;;8.73;2.75;;;11.10;92.50;;;;;;5117184;28;20157;-74
2022/12/24 10:21:12;;;;;;;8.50;2.28;;;11.10;92.50;;;;;;5135421;28;20042;-74
2022/12/24 10:23:46;;;;;;;6.60;2.45;;;11.10;92.40;;;;;;5135882;28;20050;-74
2022/12/24 10:26:18;;;;;;;6.45;2.38;;;11.10;92.40;;;;;;5135373;28;20039;-74
2022/12/24 10:28:56;;;;;;;6.18;2.35;;;11.10;92.50;;;;;;5135378;28;20039;-75
2022/12/24 10:31:27;;;;;;;10.23;2.70;;;11.10;92.50;;;;;;5116986;28;20043;-75
2022/12/24 10:33:59;;;;;;;9.00;2.53;;;11.20;92.50;;;;;;5135284;28;20069;-74
2022/12/24 10:36:28;;;;;;;6.55;2.08;;;11.20;92.40;;;;;;5117942;28;20039;-75
2022/12/24 10:38:54;;;;;;;6.65;2.38;;;11.30;92.50;;;;;;5135376;28;20031;-75
2022/12/24 10:41:20;;;;;;;7.10;2.75;;;11.30;92.40;;;;;;5116656;28;20043;-75
2022/12/24 10:43:47;;;;;;;9.10;2.70;;;11.40;92.40;;;;;;5117179;28;20470;-75
2022/12/24 10:46:30;;;;;;;8.60;2.53;;;11.50;92.40;;;;;;5135136;28;20045;-74
2022/12/24 10:49:01;;;;;;;8.63;2.58;;;11.60;92.30;;;;;;5116646;28;20126;-74
2022/12/24 10:51:48;;;;;;;7.38;2.42;;;11.70;92.20;;;;;;5134958;28;20458;-74
2022/12/24 10:54:17;;;;;;;9.35;2.83;;;11.80;92.10;;;;;;5116597;28;20126;-74
2022/12/24 10:56:51;;;;;;;8.52;2.67;;;11.80;92.00;;;;;;5135004;28;20043;-74
2022/12/24 10:59:27;;;;;;;6.05;1.88;;;11.80;92.00;;;;;;5115619;28;20432;-74
2022/12/24 11:01:55;;;;;;;8.10;2.63;;;11.70;92.00;;;;;;5116748;28;20051;-75
2022/12/24 11:04:23;;;;;;;7.40;2.53;;;11.70;92.00;;;;;;5135222;28;20470;-75
2022/12/24 11:07:00;;;;;;;7.88;2.30;;;11.70;92.10;;;;;;5135024;28;20039;-75
2022/12/24 11:09:31;;;;;;;6.47;2.45;;;11.70;92.00;;;;;;5134916;28;20046;-75
2022/12/24 11:11:58;;;;;;;5.43;1.77;;;11.70;92.10;;;;;;5134416;28;20093;-75
2022/12/24 11:14:27;;;;;;;5.15;2.00;;;11.60;92.10;;;;;;5134490;28;20047;-74
2022/12/24 11:16:55;;;;;;;5.35;1.70;;;11.60;92.20;;;;;;5116047;28;20041;-75
2022/12/24 11:19:30;;;;;;;4.55;1.55;;;11.60;92.20;;;;;;5116134;28;20039;-75
2022/12/24 11:22:00;;;;;;;7.57;2.17;;;11.70;92.10;;;;;;5116940;28;20043;-75
2022/12/24 11:24:31;;;;;;;9.05;1.65;;;11.80;92.20;;;;;;5099165;28;20049;-75
2022/12/24 11:27:36;;;;;;;5.55;1.73;;;11.70;92.10;;;;;;5116411;28;20049;-74
2022/12/24 11:30:21;;;;;;;4.70;1.90;;;11.70;92.10;;;;;;5115921;28;20366;-75
2022/12/24 11:33:15;;;;;;;3.08;1.70;;;11.70;92.10;;;;;;5099008;28;20067;-75
2022/12/24 11:35:46;;;;;;;11.27;2.20;;;11.70;92.10;;;;;;5134425;28;20039;-73
2022/12/24 11:38:18;;;;;;;5.53;1.70;;;11.80;92.10;;;;;;5134186;28;20454;-73
2022/12/24 11:40:48;;;;;;;5.45;2.00;;;11.60;92.00;;;;;;5134296;28;20043;-73
2022/12/24 11:43:18;;;;;;;4.88;1.90;;;11.50;92.10;;;;;;5134103;28;20067;-73
2022/12/24 11:45:53;;;;;;;6.07;1.85;;;11.50;92.10;;;;;;5134373;28;20050;-73
2022/12/24 11:48:34;;;;;;;5.22;1.70;;;11.50;92.20;;;;;;5134545;28;20386;-73
2022/12/24 11:51:02;;;;;;;4.97;1.50;;;11.50;92.30;;;;;;5134461;28;20042;-72
2022/12/24 11:53:44;;;;;;;5.72;1.73;;;11.50;92.20;;;;;;5134040;28;20043;-73
2022/12/24 11:56:26;;;;;;;;;;;11.50;92.20;;;;;;5134514;28;20088;-73
2022/12/24 11:58:57;;;;;;;9.10;1.85;;;11.40;92.20;;;;;;5132312;28;19911;-73
2022/12/24 12:01:45;;;;;;;4.55;1.65;;;11.30;92.10;;;;;;5133770;28;20122;-72
2022/12/24 12:04:17;;;;;;;3.53;1.42;;;11.40;92.10;;;;;;5133847;28;20101;-72
2022/12/24 12:06:50;;;;;;;5.97;1.40;;;11.30;92.20;;;;;;5133848;28;20099;-73
2022/12/24 12:09:21;;;;;;;5.32;1.58;;;11.30;92.20;;;;;;5134373;28;20035;-73
2022/12/24 12:11:53;;;;;;;4.43;1.20;;;11.30;92.20;;;;;;5134121;28;20402;-73
2022/12/24 12:14:29;;;;;;;6.40;1.67;;;11.30;92.30;;;;;;5115367;28;20486;-73
2022/12/24 12:17:09;;;;;;;4.97;1.52;;;11.30;92.30;;;;;;5134069;28;20055;-74
2022/12/24 12:19:45;;;;;;;6.50;1.73;;;11.40;92.20;;;;;;5115112;28;20134;-73
2022/12/24 12:22:27;;;;;;;4.45;1.40;;;11.40;92.10;;;;;;5133340;28;20092;-73
2022/12/24 12:24:55;;;;;;;4.63;1.63;;;11.50;92.10;;;;;;5133619;28;20035;-73
2022/12/24 12:27:38;;;;;;;3.97;1.35;;;11.40;92.00;;;;;;5133468;28;20417;-73
2022/12/24 12:30:13;;;;;;;5.20;1.42;;;11.50;92.30;;;;;;5133491;28;20043;-74
2022/12/24 12:32:47;;;;;;;5.68;1.73;;;11.50;92.00;;;;;;5116598;28;20039;-73
2022/12/24 12:35:28;;;;;;;4.90;1.60;;;11.50;92.00;;;;;;5133305;28;20069;-73
2022/12/24 12:37:58;;;;;;;3.42;1.50;;;11.50;92.00;;;;;;5133232;27;20039;-73
2022/12/24 12:40:37;;;;;;;7.07;1.88;;;11.50;91.90;;;;;;5097900;28;20035;-73
2022/12/24 12:43:28;;;;;;;5.72;1.60;;;11.40;91.90;;;;;;5133243;28;20054;-74
2022/12/24 12:46:20;;;;;;;5.15;1.90;;;11.40;92.00;;;;;;5133822;28;20046;-73
2022/12/24 12:49:04;;;;;;;4.75;1.52;;;11.40;92.20;;;;;;5118320;28;20059;-74
2022/12/24 12:51:47;;;;;;;6.00;1.20;;;11.40;92.10;;;;;;5133042;28;20039;-74
2022/12/24 12:54:41;;;;;;;3.00;1.20;;;11.50;92.00;;;;;;5133019;28;20054;-73
2022/12/24 12:57:12;;;;;;;4.65;1.80;;;11.50;91.90;;;;;;5117644;28;20075;-73
2022/12/24 12:59:44;;;;;;;3.58;1.33;;;11.40;91.80;;;;;;5114613;28;20121;-74
2022/12/24 13:02:39;;;;;;;5.68;1.63;;;11.50;91.80;;;;;;5133474;28;20041;-74
2022/12/24 13:05:42;;;;;;;6.05;1.58;;;11.40;91.80;;;;;;5117546;28;20055;-74
2022/12/24 13:08:42;;;;;;;6.07;1.35;;;11.30;91.80;;;;;;5132243;28;20047;-74
2022/12/24 13:11:36;;;;;;;4.15;1.20;;;11.30;91.80;;;;;;5132328;28;20490;-74
2022/12/24 13:14:22;;;;;;;5.80;1.42;;;11.30;92.10;;;;;;5118929;28;20453;-74
2022/12/24 13:17:17;;;;;;;5.75;1.65;;;11.30;91.80;;;;;;5132934;28;20046;-74